CYLU

Kangiqsualujjuaq (Georges River) Airport

ICAO Code CYLU
IATA Code XGR
Name Kangiqsualujjuaq (Georges River) Airport
Location Kangiqsualujjuaq, Quebec, CA
Elevation 217 Feet / 66.1 Meters
Latitude 58.71138889
Longitude -65.99277778
METAR CYLU 181900Z 33009G16KT 270V340 15SM FEW096 SCT240 24/11 A2987 RMK AC2CC1 LAST STFD OBS/NEXT 191200 UTC SLP120 DENSITY ALT 1400FT
Extra information Display NOTAMS
Display Charts
Runway Length Width Surface Elevation
16 3521 ft 100 ft GRAVEL 158 ft
34 3521 ft 100 ft GRAVEL 217 ft